sensor_id;sensor_type;location;lat;lon;timestamp;P1;durP1;ratioP1;P2;durP2;ratioP2
65597;SDS011;52267;51.984;20.956;2023-07-22T00:00:05;8.20;;;7.10;;
65597;SDS011;52267;51.984;20.956;2023-07-22T00:02:33;9.90;;;7.30;;
65597;SDS011;52267;51.984;20.956;2023-07-22T00:05:00;7.80;;;7.00;;
65597;SDS011;52267;51.984;20.956;2023-07-22T00:07:27;8.70;;;7.40;;
65597;SDS011;52267;51.984;20.956;2023-07-22T00:09:54;7.70;;;6.90;;
65597;SDS011;52267;51.984;20.956;2023-07-22T00:12:21;8.40;;;7.30;;
65597;SDS011;52267;51.984;20.956;2023-07-22T00:14:52;9.60;;;7.50;;
65597;SDS011;52267;51.984;20.956;2023-07-22T00:17:20;7.70;;;6.80;;
65597;SDS011;52267;51.984;20.956;2023-07-22T00:22:18;7.60;;;6.70;;
65597;SDS011;52267;51.984;20.956;2023-07-22T00:24:46;8.60;;;7.60;;
65597;SDS011;52267;51.984;20.956;2023-07-22T00:27:14;8.90;;;7.20;;
65597;SDS011;52267;51.984;20.956;2023-07-22T00:29:41;10.80;;;7.60;;
65597;SDS011;52267;51.984;20.956;2023-07-22T00:32:08;10.40;;;7.80;;
65597;SDS011;52267;51.984;20.956;2023-07-22T00:34:36;9.20;;;7.90;;
65597;SDS011;52267;51.984;20.956;2023-07-22T00:37:03;9.70;;;7.70;;
65597;SDS011;52267;51.984;20.956;2023-07-22T00:39:30;11.10;;;7.70;;
65597;SDS011;52267;51.984;20.956;2023-07-22T00:41:57;9.30;;;7.90;;
65597;SDS011;52267;51.984;20.956;2023-07-22T00:44:24;9.70;;;8.10;;
65597;SDS011;52267;51.984;20.956;2023-07-22T00:46:54;9.30;;;8.00;;
65597;SDS011;52267;51.984;20.956;2023-07-22T00:49:24;11.50;;;8.10;;
65597;SDS011;52267;51.984;20.956;2023-07-22T00:51:52;9.00;;;8.10;;
65597;SDS011;52267;51.984;20.956;2023-07-22T00:54:19;9.50;;;8.00;;
65597;SDS011;52267;51.984;20.956;2023-07-22T00:56:47;10.00;;;8.40;;
65597;SDS011;52267;51.984;20.956;2023-07-22T00:59:17;11.00;;;8.50;;
65597;SDS011;52267;51.984;20.956;2023-07-22T01:01:44;10.20;;;8.50;;
65597;SDS011;52267;51.984;20.956;2023-07-22T01:04:13;10.20;;;8.70;;
65597;SDS011;52267;51.984;20.956;2023-07-22T01:06:43;9.70;;;8.60;;
65597;SDS011;52267;51.984;20.956;2023-07-22T01:09:11;13.10;;;9.90;;
65597;SDS011;52267;51.984;20.956;2023-07-22T01:11:38;14.30;;;11.20;;
65597;SDS011;52267;51.984;20.956;2023-07-22T01:14:05;11.80;;;9.80;;
65597;SDS011;52267;51.984;20.956;2023-07-22T01:16:35;17.80;;;11.80;;
65597;SDS011;52267;51.984;20.956;2023-07-22T01:19:03;18.20;;;12.00;;
65597;SDS011;52267;51.984;20.956;2023-07-22T01:21:32;15.70;;;10.80;;
65597;SDS011;52267;51.984;20.956;2023-07-22T01:23:59;12.40;;;10.30;;
65597;SDS011;52267;51.984;20.956;2023-07-22T01:26:26;12.20;;;9.30;;
65597;SDS011;52267;51.984;20.956;2023-07-22T01:29:04;10.50;;;8.40;;
65597;SDS011;52267;51.984;20.956;2023-07-22T01:31:35;10.10;;;9.10;;
65597;SDS011;52267;51.984;20.956;2023-07-22T01:34:02;12.90;;;9.50;;
65597;SDS011;52267;51.984;20.956;2023-07-22T01:36:30;12.30;;;9.40;;
65597;SDS011;52267;51.984;20.956;2023-07-22T01:38:57;10.70;;;9.60;;
65597;SDS011;52267;51.984;20.956;2023-07-22T01:41:25;14.10;;;9.70;;
65597;SDS011;52267;51.984;20.956;2023-07-22T01:43:51;13.30;;;9.80;;
65597;SDS011;52267;51.984;20.956;2023-07-22T01:46:18;10.20;;;9.10;;
65597;SDS011;52267;51.984;20.956;2023-07-22T01:48:46;10.40;;;9.30;;
65597;SDS011;52267;51.984;20.956;2023-07-22T01:51:13;11.60;;;9.80;;
65597;SDS011;52267;51.984;20.956;2023-07-22T01:53:41;11.10;;;9.10;;
65597;SDS011;52267;51.984;20.956;2023-07-22T01:56:08;10.60;;;9.10;;
65597;SDS011;52267;51.984;20.956;2023-07-22T01:58:35;10.80;;;9.50;;
65597;SDS011;52267;51.984;20.956;2023-07-22T02:01:02;11.20;;;9.80;;
65597;SDS011;52267;51.984;20.956;2023-07-22T02:03:29;12.00;;;10.00;;
65597;SDS011;52267;51.984;20.956;2023-07-22T02:06:03;11.20;;;9.10;;
65597;SDS011;52267;51.984;20.956;2023-07-22T02:08:30;12.80;;;10.00;;
65597;SDS011;52267;51.984;20.956;2023-07-22T02:11:06;11.50;;;10.10;;
65597;SDS011;52267;51.984;20.956;2023-07-22T02:13:34;12.00;;;10.50;;
65597;SDS011;52267;51.984;20.956;2023-07-22T02:16:02;11.60;;;9.60;;
65597;SDS011;52267;51.984;20.956;2023-07-22T02:18:30;11.40;;;10.20;;
65597;SDS011;52267;51.984;20.956;2023-07-22T02:20:57;11.60;;;9.60;;
65597;SDS011;52267;51.984;20.956;2023-07-22T02:23:24;11.60;;;10.20;;
65597;SDS011;52267;51.984;20.956;2023-07-22T02:25:52;12.00;;;10.00;;
65597;SDS011;52267;51.984;20.956;2023-07-22T02:28:20;12.10;;;10.30;;
65597;SDS011;52267;51.984;20.956;2023-07-22T02:30:50;11.90;;;10.20;;
65597;SDS011;52267;51.984;20.956;2023-07-22T02:33:20;12.40;;;10.40;;
65597;SDS011;52267;51.984;20.956;2023-07-22T02:35:48;12.30;;;11.00;;
65597;SDS011;52267;51.984;20.956;2023-07-22T02:38:15;11.70;;;10.30;;
65597;SDS011;52267;51.984;20.956;2023-07-22T02:40:42;12.00;;;10.10;;
65597;SDS011;52267;51.984;20.956;2023-07-22T02:43:10;12.60;;;11.20;;
65597;SDS011;52267;51.984;20.956;2023-07-22T02:45:37;14.10;;;12.10;;
65597;SDS011;52267;51.984;20.956;2023-07-22T02:48:05;12.70;;;10.70;;
65597;SDS011;52267;51.984;20.956;2023-07-22T02:50:32;13.90;;;10.90;;
65597;SDS011;52267;51.984;20.956;2023-07-22T02:52:59;13.10;;;10.90;;
65597;SDS011;52267;51.984;20.956;2023-07-22T02:55:26;12.50;;;10.60;;
65597;SDS011;52267;51.984;20.956;2023-07-22T02:57:53;12.20;;;10.80;;
65597;SDS011;52267;51.984;20.956;2023-07-22T03:00:23;13.60;;;10.70;;
65597;SDS011;52267;51.984;20.956;2023-07-22T03:02:51;11.90;;;10.40;;
65597;SDS011;52267;51.984;20.956;2023-07-22T03:05:20;12.60;;;11.10;;
65597;SDS011;52267;51.984;20.956;2023-07-22T03:07:48;13.00;;;11.50;;
65597;SDS011;52267;51.984;20.956;2023-07-22T03:10:15;13.80;;;11.40;;
65597;SDS011;52267;51.984;20.956;2023-07-22T03:12:42;13.60;;;12.00;;
65597;SDS011;52267;51.984;20.956;2023-07-22T03:15:09;14.90;;;11.30;;
65597;SDS011;52267;51.984;20.956;2023-07-22T03:17:39;12.90;;;11.20;;
65597;SDS011;52267;51.984;20.956;2023-07-22T03:20:08;15.20;;;10.90;;
65597;SDS011;52267;51.984;20.956;2023-07-22T03:22:46;12.60;;;11.10;;
65597;SDS011;52267;51.984;20.956;2023-07-22T03:25:14;13.50;;;10.70;;
65597;SDS011;52267;51.984;20.956;2023-07-22T03:27:44;11.90;;;10.60;;
65597;SDS011;52267;51.984;20.956;2023-07-22T03:34:10;13.20;;;11.30;;
65597;SDS011;52267;51.984;20.956;2023-07-22T03:36:37;12.40;;;11.10;;
65597;SDS011;52267;51.984;20.956;2023-07-22T03:39:04;13.30;;;11.40;;
65597;SDS011;52267;51.984;20.956;2023-07-22T03:41:32;12.70;;;10.70;;
65597;SDS011;52267;51.984;20.956;2023-07-22T03:43:59;15.00;;;11.50;;
65597;SDS011;52267;51.984;20.956;2023-07-22T03:46:26;12.30;;;10.90;;
65597;SDS011;52267;51.984;20.956;2023-07-22T03:48:53;12.60;;;11.30;;
65597;SDS011;52267;51.984;20.956;2023-07-22T03:51:23;14.40;;;11.90;;
65597;SDS011;52267;51.984;20.956;2023-07-22T03:53:50;10.40;;;9.00;;
65597;SDS011;52267;51.984;20.956;2023-07-22T03:56:17;15.50;;;10.30;;
65597;SDS011;52267;51.984;20.956;2023-07-22T03:58:44;12.70;;;9.70;;
65597;SDS011;52267;51.984;20.956;2023-07-22T04:01:12;11.50;;;10.20;;
65597;SDS011;52267;51.984;20.956;2023-07-22T04:03:39;11.60;;;9.70;;
65597;SDS011;52267;51.984;20.956;2023-07-22T04:06:14;11.20;;;9.40;;
65597;SDS011;52267;51.984;20.956;2023-07-22T04:08:41;10.70;;;9.50;;
65597;SDS011;52267;51.984;20.956;2023-07-22T04:11:08;12.00;;;10.40;;
65597;SDS011;52267;51.984;20.956;2023-07-22T04:13:35;11.00;;;9.40;;
65597;SDS011;52267;51.984;20.956;2023-07-22T04:16:02;12.00;;;9.70;;
65597;SDS011;52267;51.984;20.956;2023-07-22T04:18:29;11.60;;;10.40;;
65597;SDS011;52267;51.984;20.956;2023-07-22T04:21:01;12.60;;;10.60;;
65597;SDS011;52267;51.984;20.956;2023-07-22T04:23:28;13.20;;;10.40;;
65597;SDS011;52267;51.984;20.956;2023-07-22T04:25:55;11.70;;;9.50;;
65597;SDS011;52267;51.984;20.956;2023-07-22T04:28:22;13.30;;;11.10;;
65597;SDS011;52267;51.984;20.956;2023-07-22T04:30:59;11.60;;;10.20;;
65597;SDS011;52267;51.984;20.956;2023-07-22T04:33:27;10.30;;;9.20;;
65597;SDS011;52267;51.984;20.956;2023-07-22T04:35:57;12.60;;;9.80;;
65597;SDS011;52267;51.984;20.956;2023-07-22T04:38:25;11.00;;;9.90;;
65597;SDS011;52267;51.984;20.956;2023-07-22T04:40:52;12.10;;;10.90;;
65597;SDS011;52267;51.984;20.956;2023-07-22T04:43:19;11.20;;;10.00;;
65597;SDS011;52267;51.984;20.956;2023-07-22T04:45:47;11.60;;;9.40;;
65597;SDS011;52267;51.984;20.956;2023-07-22T04:48:19;11.00;;;10.00;;
65597;SDS011;52267;51.984;20.956;2023-07-22T04:50:47;10.40;;;9.30;;
65597;SDS011;52267;51.984;20.956;2023-07-22T04:53:14;10.20;;;8.90;;
65597;SDS011;52267;51.984;20.956;2023-07-22T04:55:42;12.00;;;9.60;;
65597;SDS011;52267;51.984;20.956;2023-07-22T04:58:09;9.80;;;8.10;;
65597;SDS011;52267;51.984;20.956;2023-07-22T05:00:39;10.00;;;8.50;;
65597;SDS011;52267;51.984;20.956;2023-07-22T05:03:08;12.00;;;8.40;;
65597;SDS011;52267;51.984;20.956;2023-07-22T05:05:35;13.10;;;9.00;;
65597;SDS011;52267;51.984;20.956;2023-07-22T05:08:02;10.90;;;8.00;;
65597;SDS011;52267;51.984;20.956;2023-07-22T05:10:30;8.70;;;7.70;;
65597;SDS011;52267;51.984;20.956;2023-07-22T05:12:57;10.50;;;8.10;;
65597;SDS011;52267;51.984;20.956;2023-07-22T05:15:24;11.50;;;7.70;;
65597;SDS011;52267;51.984;20.956;2023-07-22T05:17:51;8.50;;;7.30;;
65597;SDS011;52267;51.984;20.956;2023-07-22T05:20:18;8.70;;;7.60;;
65597;SDS011;52267;51.984;20.956;2023-07-22T05:22:46;9.20;;;8.00;;
65597;SDS011;52267;51.984;20.956;2023-07-22T05:25:13;9.20;;;7.60;;
65597;SDS011;52267;51.984;20.956;2023-07-22T05:27:40;9.70;;;7.50;;
65597;SDS011;52267;51.984;20.956;2023-07-22T05:30:08;11.60;;;8.70;;
65597;SDS011;52267;51.984;20.956;2023-07-22T05:32:35;10.00;;;8.10;;
65597;SDS011;52267;51.984;20.956;2023-07-22T05:35:02;10.00;;;7.70;;
65597;SDS011;52267;51.984;20.956;2023-07-22T05:37:31;8.40;;;7.40;;
65597;SDS011;52267;51.984;20.956;2023-07-22T05:39:59;10.20;;;8.10;;
65597;SDS011;52267;51.984;20.956;2023-07-22T05:42:28;10.90;;;8.30;;
65597;SDS011;52267;51.984;20.956;2023-07-22T05:44:57;10.30;;;7.40;;
65597;SDS011;52267;51.984;20.956;2023-07-22T05:47:24;11.60;;;8.20;;
65597;SDS011;52267;51.984;20.956;2023-07-22T05:49:52;10.30;;;7.40;;
65597;SDS011;52267;51.984;20.956;2023-07-22T05:52:19;9.80;;;7.30;;
65597;SDS011;52267;51.984;20.956;2023-07-22T05:54:46;8.20;;;7.30;;
65597;SDS011;52267;51.984;20.956;2023-07-22T05:57:13;10.50;;;7.10;;
65597;SDS011;52267;51.984;20.956;2023-07-22T05:59:40;7.90;;;7.10;;
65597;SDS011;52267;51.984;20.956;2023-07-22T06:02:08;8.80;;;7.40;;
65597;SDS011;52267;51.984;20.956;2023-07-22T06:04:37;9.00;;;6.80;;
65597;SDS011;52267;51.984;20.956;2023-07-22T06:07:05;7.50;;;6.60;;
65597;SDS011;52267;51.984;20.956;2023-07-22T06:09:32;6.20;;;5.60;;
65597;SDS011;52267;51.984;20.956;2023-07-22T06:11:59;9.70;;;6.10;;
65597;SDS011;52267;51.984;20.956;2023-07-22T06:14:27;7.80;;;6.10;;
65597;SDS011;52267;51.984;20.956;2023-07-22T06:16:54;6.60;;;5.30;;
65597;SDS011;52267;51.984;20.956;2023-07-22T06:19:21;7.30;;;5.00;;
65597;SDS011;52267;51.984;20.956;2023-07-22T06:21:50;7.90;;;5.20;;
65597;SDS011;52267;51.984;20.956;2023-07-22T06:24:17;5.90;;;4.70;;
65597;SDS011;52267;51.984;20.956;2023-07-22T06:26:44;5.90;;;3.90;;
65597;SDS011;52267;51.984;20.956;2023-07-22T06:29:11;6.80;;;4.20;;
65597;SDS011;52267;51.984;20.956;2023-07-22T06:31:38;6.60;;;3.80;;
65597;SDS011;52267;51.984;20.956;2023-07-22T06:34:05;4.90;;;3.60;;
65597;SDS011;52267;51.984;20.956;2023-07-22T06:36:32;5.10;;;3.50;;
65597;SDS011;52267;51.984;20.956;2023-07-22T06:38:59;4.90;;;3.50;;
65597;SDS011;52267;51.984;20.956;2023-07-22T06:41:26;5.10;;;3.40;;
65597;SDS011;52267;51.984;20.956;2023-07-22T06:43:54;5.60;;;3.70;;
65597;SDS011;52267;51.984;20.956;2023-07-22T06:46:21;4.30;;;3.50;;
65597;SDS011;52267;51.984;20.956;2023-07-22T06:48:48;6.20;;;3.20;;
65597;SDS011;52267;51.984;20.956;2023-07-22T06:51:15;4.70;;;3.40;;
65597;SDS011;52267;51.984;20.956;2023-07-22T06:53:42;4.70;;;3.50;;
65597;SDS011;52267;51.984;20.956;2023-07-22T06:56:09;3.70;;;3.00;;
65597;SDS011;52267;51.984;20.956;2023-07-22T06:58:36;4.80;;;3.00;;
65597;SDS011;52267;51.984;20.956;2023-07-22T07:01:03;4.70;;;3.50;;
65597;SDS011;52267;51.984;20.956;2023-07-22T07:03:30;5.90;;;3.80;;
65597;SDS011;52267;51.984;20.956;2023-07-22T07:05:57;5.10;;;3.40;;
65597;SDS011;52267;51.984;20.956;2023-07-22T07:08:24;5.40;;;3.50;;
65597;SDS011;52267;51.984;20.956;2023-07-22T07:10:52;4.00;;;3.20;;
65597;SDS011;52267;51.984;20.956;2023-07-22T07:13:19;4.30;;;3.40;;
65597;SDS011;52267;51.984;20.956;2023-07-22T07:15:47;4.00;;;3.10;;
65597;SDS011;52267;51.984;20.956;2023-07-22T07:18:15;5.10;;;3.40;;
65597;SDS011;52267;51.984;20.956;2023-07-22T07:20:43;5.40;;;3.00;;
65597;SDS011;52267;51.984;20.956;2023-07-22T07:23:10;4.80;;;3.10;;
65597;SDS011;52267;51.984;20.956;2023-07-22T07:25:38;4.90;;;3.20;;
65597;SDS011;52267;51.984;20.956;2023-07-22T07:28:05;8.50;;;3.60;;
65597;SDS011;52267;51.984;20.956;2023-07-22T07:30:32;4.60;;;3.00;;
65597;SDS011;52267;51.984;20.956;2023-07-22T07:32:59;4.80;;;3.10;;
65597;SDS011;52267;51.984;20.956;2023-07-22T07:35:26;5.00;;;3.10;;
65597;SDS011;52267;51.984;20.956;2023-07-22T07:37:54;3.60;;;3.00;;
65597;SDS011;52267;51.984;20.956;2023-07-22T07:40:21;5.60;;;3.10;;
65597;SDS011;52267;51.984;20.956;2023-07-22T07:42:48;4.50;;;3.10;;
65597;SDS011;52267;51.984;20.956;2023-07-22T07:45:15;4.10;;;2.70;;
65597;SDS011;52267;51.984;20.956;2023-07-22T07:47:42;4.40;;;3.10;;
65597;SDS011;52267;51.984;20.956;2023-07-22T07:50:09;4.90;;;2.90;;
65597;SDS011;52267;51.984;20.956;2023-07-22T07:52:36;5.20;;;3.00;;
65597;SDS011;52267;51.984;20.956;2023-07-22T07:55:05;3.50;;;2.80;;
65597;SDS011;52267;51.984;20.956;2023-07-22T07:57:33;4.40;;;2.90;;
65597;SDS011;52267;51.984;20.956;2023-07-22T08:00:00;5.00;;;3.30;;
65597;SDS011;52267;51.984;20.956;2023-07-22T08:02:27;4.20;;;3.00;;
65597;SDS011;52267;51.984;20.956;2023-07-22T08:04:54;4.20;;;3.00;;
65597;SDS011;52267;51.984;20.956;2023-07-22T08:07:21;4.60;;;2.90;;
65597;SDS011;52267;51.984;20.956;2023-07-22T08:09:48;6.00;;;2.80;;
65597;SDS011;52267;51.984;20.956;2023-07-22T08:12:16;4.30;;;2.60;;
65597;SDS011;52267;51.984;20.956;2023-07-22T08:14:43;4.00;;;2.50;;
65597;SDS011;52267;51.984;20.956;2023-07-22T08:17:10;4.30;;;2.60;;
65597;SDS011;52267;51.984;20.956;2023-07-22T08:19:37;3.90;;;2.50;;
65597;SDS011;52267;51.984;20.956;2023-07-22T08:22:05;3.20;;;2.20;;
65597;SDS011;52267;51.984;20.956;2023-07-22T08:24:32;6.40;;;2.70;;
65597;SDS011;52267;51.984;20.956;2023-07-22T08:26:59;4.30;;;2.70;;
65597;SDS011;52267;51.984;20.956;2023-07-22T08:29:26;5.60;;;2.90;;
65597;SDS011;52267;51.984;20.956;2023-07-22T08:31:53;4.60;;;2.40;;
65597;SDS011;52267;51.984;20.956;2023-07-22T08:34:21;6.30;;;3.10;;
65597;SDS011;52267;51.984;20.956;2023-07-22T08:36:48;4.10;;;2.40;;
65597;SDS011;52267;51.984;20.956;2023-07-22T08:39:15;4.60;;;2.60;;
65597;SDS011;52267;51.984;20.956;2023-07-22T08:41:48;4.50;;;2.60;;
65597;SDS011;52267;51.984;20.956;2023-07-22T08:44:20;4.20;;;2.60;;
65597;SDS011;52267;51.984;20.956;2023-07-22T08:46:49;6.80;;;2.60;;
65597;SDS011;52267;51.984;20.956;2023-07-22T08:49:23;4.40;;;2.60;;
65597;SDS011;52267;51.984;20.956;2023-07-22T08:51:50;4.90;;;2.30;;
65597;SDS011;52267;51.984;20.956;2023-07-22T08:54:18;3.70;;;2.30;;
65597;SDS011;52267;51.984;20.956;2023-07-22T08:56:46;4.70;;;2.60;;
65597;SDS011;52267;51.984;20.956;2023-07-22T08:59:14;3.60;;;2.10;;
65597;SDS011;52267;51.984;20.956;2023-07-22T09:01:42;3.90;;;2.60;;
65597;SDS011;52267;51.984;20.956;2023-07-22T09:04:09;4.30;;;2.70;;
65597;SDS011;52267;51.984;20.956;2023-07-22T09:06:36;4.80;;;2.60;;
65597;SDS011;52267;51.984;20.956;2023-07-22T09:09:04;5.90;;;2.40;;
65597;SDS011;52267;51.984;20.956;2023-07-22T09:11:35;4.50;;;2.60;;
65597;SDS011;52267;51.984;20.956;2023-07-22T09:14:02;3.40;;;2.40;;
65597;SDS011;52267;51.984;20.956;2023-07-22T09:16:32;4.40;;;2.50;;
65597;SDS011;52267;51.984;20.956;2023-07-22T09:18:59;4.30;;;2.60;;
65597;SDS011;52267;51.984;20.956;2023-07-22T09:21:26;5.50;;;2.40;;
65597;SDS011;52267;51.984;20.956;2023-07-22T09:23:54;3.90;;;2.40;;
65597;SDS011;52267;51.984;20.956;2023-07-22T09:26:21;3.80;;;2.10;;
65597;SDS011;52267;51.984;20.956;2023-07-22T09:28:57;3.20;;;2.00;;
65597;SDS011;52267;51.984;20.956;2023-07-22T09:31:26;4.00;;;2.40;;
65597;SDS011;52267;51.984;20.956;2023-07-22T09:33:54;3.90;;;2.40;;
65597;SDS011;52267;51.984;20.956;2023-07-22T09:36:22;9.40;;;2.30;;
65597;SDS011;52267;51.984;20.956;2023-07-22T09:39:02;3.50;;;2.50;;
65597;SDS011;52267;51.984;20.956;2023-07-22T09:41:29;4.80;;;2.30;;
65597;SDS011;52267;51.984;20.956;2023-07-22T09:43:57;4.00;;;2.10;;
65597;SDS011;52267;51.984;20.956;2023-07-22T09:46:31;3.20;;;1.90;;
65597;SDS011;52267;51.984;20.956;2023-07-22T09:49:07;4.70;;;1.90;;
65597;SDS011;52267;51.984;20.956;2023-07-22T09:51:37;4.60;;;2.10;;
65597;SDS011;52267;51.984;20.956;2023-07-22T09:54:06;4.00;;;2.40;;
65597;SDS011;52267;51.984;20.956;2023-07-22T09:56:48;3.90;;;2.00;;
65597;SDS011;52267;51.984;20.956;2023-07-22T09:59:18;3.70;;;1.90;;
65597;SDS011;52267;51.984;20.956;2023-07-22T10:01:47;4.40;;;2.00;;
65597;SDS011;52267;51.984;20.956;2023-07-22T10:04:16;4.10;;;2.00;;
65597;SDS011;52267;51.984;20.956;2023-07-22T10:06:43;3.60;;;1.70;;
65597;SDS011;52267;51.984;20.956;2023-07-22T10:09:11;3.00;;;1.90;;
65597;SDS011;52267;51.984;20.956;2023-07-22T10:11:39;3.20;;;1.80;;
65597;SDS011;52267;51.984;20.956;2023-07-22T10:14:07;3.00;;;2.00;;
65597;SDS011;52267;51.984;20.956;2023-07-22T10:16:34;3.80;;;1.70;;
65597;SDS011;52267;51.984;20.956;2023-07-22T10:19:04;5.80;;;1.80;;
65597;SDS011;52267;51.984;20.956;2023-07-22T10:21:32;3.80;;;2.20;;
65597;SDS011;52267;51.984;20.956;2023-07-22T10:24:00;4.40;;;1.70;;
65597;SDS011;52267;51.984;20.956;2023-07-22T10:26:29;3.40;;;1.90;;
65597;SDS011;52267;51.984;20.956;2023-07-22T10:28:56;3.20;;;1.60;;
65597;SDS011;52267;51.984;20.956;2023-07-22T10:31:25;4.70;;;2.80;;
65597;SDS011;52267;51.984;20.956;2023-07-22T10:33:57;2.90;;;1.80;;
65597;SDS011;52267;51.984;20.956;2023-07-22T10:36:29;3.20;;;1.60;;
65597;SDS011;52267;51.984;20.956;2023-07-22T10:38:59;6.10;;;2.00;;
65597;SDS011;52267;51.984;20.956;2023-07-22T10:41:26;4.10;;;1.70;;
65597;SDS011;52267;51.984;20.956;2023-07-22T10:43:58;4.30;;;2.20;;
65597;SDS011;52267;51.984;20.956;2023-07-22T10:46:37;3.90;;;1.70;;
65597;SDS011;52267;51.984;20.956;2023-07-22T10:51:38;3.50;;;1.70;;
65597;SDS011;52267;51.984;20.956;2023-07-22T10:54:15;4.50;;;2.00;;
65597;SDS011;52267;51.984;20.956;2023-07-22T10:56:43;4.10;;;1.80;;
65597;SDS011;52267;51.984;20.956;2023-07-22T10:59:12;3.70;;;2.20;;
65597;SDS011;52267;51.984;20.956;2023-07-22T11:01:39;3.80;;;1.80;;
65597;SDS011;52267;51.984;20.956;2023-07-22T11:12:05;3.40;;;2.00;;
65597;SDS011;52267;51.984;20.956;2023-07-22T11:14:49;3.50;;;2.20;;
65597;SDS011;52267;51.984;20.956;2023-07-22T11:17:18;3.00;;;1.90;;
65597;SDS011;52267;51.984;20.956;2023-07-22T11:22:28;3.90;;;1.90;;
65597;SDS011;52267;51.984;20.956;2023-07-22T11:24:59;3.40;;;1.90;;
65597;SDS011;52267;51.984;20.956;2023-07-22T11:27:27;5.90;;;1.90;;
65597;SDS011;52267;51.984;20.956;2023-07-22T11:29:57;2.70;;;1.80;;
65597;SDS011;52267;51.984;20.956;2023-07-22T11:32:25;3.80;;;1.60;;
65597;SDS011;52267;51.984;20.956;2023-07-22T11:34:52;2.50;;;1.50;;
65597;SDS011;52267;51.984;20.956;2023-07-22T11:37:19;4.10;;;2.00;;
65597;SDS011;52267;51.984;20.956;2023-07-22T11:39:46;5.10;;;2.20;;
65597;SDS011;52267;51.984;20.956;2023-07-22T11:42:13;3.00;;;1.90;;
65597;SDS011;52267;51.984;20.956;2023-07-22T11:44:42;2.70;;;1.90;;
65597;SDS011;52267;51.984;20.956;2023-07-22T11:47:09;4.10;;;2.10;;
65597;SDS011;52267;51.984;20.956;2023-07-22T11:49:40;3.60;;;2.10;;
65597;SDS011;52267;51.984;20.956;2023-07-22T11:52:11;3.10;;;2.10;;
65597;SDS011;52267;51.984;20.956;2023-07-22T11:54:42;4.50;;;2.10;;
65597;SDS011;52267;51.984;20.956;2023-07-22T11:57:10;3.50;;;2.10;;
65597;SDS011;52267;51.984;20.956;2023-07-22T11:59:53;3.80;;;2.20;;
65597;SDS011;52267;51.984;20.956;2023-07-22T12:02:26;3.30;;;2.30;;
65597;SDS011;52267;51.984;20.956;2023-07-22T12:04:57;3.70;;;2.50;;
65597;SDS011;52267;51.984;20.956;2023-07-22T12:10:00;3.90;;;2.50;;
65597;SDS011;52267;51.984;20.956;2023-07-22T12:12:40;3.60;;;2.60;;
65597;SDS011;52267;51.984;20.956;2023-07-22T12:15:17;9.30;;;2.60;;
65597;SDS011;52267;51.984;20.956;2023-07-22T12:17:55;3.60;;;2.10;;
65597;SDS011;52267;51.984;20.956;2023-07-22T12:20:30;3.40;;;2.30;;
65597;SDS011;52267;51.984;20.956;2023-07-22T12:22:59;3.30;;;2.00;;
65597;SDS011;52267;51.984;20.956;2023-07-22T12:25:26;2.90;;;1.90;;
65597;SDS011;52267;51.984;20.956;2023-07-22T12:27:53;4.80;;;2.30;;
65597;SDS011;52267;51.984;20.956;2023-07-22T12:30:21;3.80;;;2.40;;
65597;SDS011;52267;51.984;20.956;2023-07-22T12:32:48;4.40;;;2.30;;
65597;SDS011;52267;51.984;20.956;2023-07-22T12:35:15;3.70;;;2.10;;
65597;SDS011;52267;51.984;20.956;2023-07-22T12:40:13;3.40;;;2.20;;
65597;SDS011;52267;51.984;20.956;2023-07-22T12:42:41;5.00;;;2.50;;
65597;SDS011;52267;51.984;20.956;2023-07-22T12:45:08;5.10;;;2.40;;
65597;SDS011;52267;51.984;20.956;2023-07-22T12:47:36;4.00;;;2.30;;
65597;SDS011;52267;51.984;20.956;2023-07-22T12:50:04;3.50;;;2.20;;
65597;SDS011;52267;51.984;20.956;2023-07-22T12:55:01;3.10;;;2.00;;
65597;SDS011;52267;51.984;20.956;2023-07-22T12:57:28;4.10;;;2.00;;
65597;SDS011;52267;51.984;20.956;2023-07-22T12:59:55;3.10;;;2.00;;
65597;SDS011;52267;51.984;20.956;2023-07-22T13:02:23;4.50;;;2.20;;
65597;SDS011;52267;51.984;20.956;2023-07-22T13:04:51;3.20;;;2.20;;
65597;SDS011;52267;51.984;20.956;2023-07-22T13:07:19;3.40;;;2.00;;
65597;SDS011;52267;51.984;20.956;2023-07-22T13:09:49;3.30;;;2.00;;
65597;SDS011;52267;51.984;20.956;2023-07-22T13:12:18;3.80;;;1.90;;
65597;SDS011;52267;51.984;20.956;2023-07-22T13:14:45;3.20;;;2.10;;
65597;SDS011;52267;51.984;20.956;2023-07-22T13:17:13;4.00;;;2.50;;
65597;SDS011;52267;51.984;20.956;2023-07-22T13:19:40;4.60;;;2.40;;
65597;SDS011;52267;51.984;20.956;2023-07-22T13:22:07;3.90;;;2.10;;
65597;SDS011;52267;51.984;20.956;2023-07-22T13:24:34;3.60;;;2.10;;
65597;SDS011;52267;51.984;20.956;2023-07-22T13:27:01;3.40;;;2.20;;
65597;SDS011;52267;51.984;20.956;2023-07-22T13:29:28;3.50;;;2.30;;
65597;SDS011;52267;51.984;20.956;2023-07-22T13:31:56;4.20;;;2.20;;
65597;SDS011;52267;51.984;20.956;2023-07-22T13:34:23;4.10;;;2.50;;
65597;SDS011;52267;51.984;20.956;2023-07-22T13:36:50;3.40;;;2.20;;
65597;SDS011;52267;51.984;20.956;2023-07-22T13:39:17;3.50;;;2.40;;
65597;SDS011;52267;51.984;20.956;2023-07-22T13:41:44;4.30;;;2.80;;
65597;SDS011;52267;51.984;20.956;2023-07-22T13:44:12;6.10;;;2.80;;
65597;SDS011;52267;51.984;20.956;2023-07-22T13:46:39;3.50;;;2.40;;
65597;SDS011;52267;51.984;20.956;2023-07-22T13:49:06;3.90;;;2.30;;
65597;SDS011;52267;51.984;20.956;2023-07-22T13:51:33;3.60;;;2.30;;
65597;SDS011;52267;51.984;20.956;2023-07-22T13:54:01;4.40;;;2.40;;
65597;SDS011;52267;51.984;20.956;2023-07-22T13:56:28;3.20;;;2.30;;
65597;SDS011;52267;51.984;20.956;2023-07-22T13:58:55;8.40;;;2.60;;
65597;SDS011;52267;51.984;20.956;2023-07-22T14:01:22;5.70;;;2.20;;
65597;SDS011;52267;51.984;20.956;2023-07-22T14:03:49;3.20;;;2.00;;
65597;SDS011;52267;51.984;20.956;2023-07-22T14:06:16;4.10;;;2.40;;
65597;SDS011;52267;51.984;20.956;2023-07-22T14:08:44;4.20;;;2.20;;
65597;SDS011;52267;51.984;20.956;2023-07-22T14:11:11;3.60;;;2.30;;
65597;SDS011;52267;51.984;20.956;2023-07-22T14:13:39;2.70;;;1.90;;
65597;SDS011;52267;51.984;20.956;2023-07-22T14:16:06;3.30;;;2.20;;
65597;SDS011;52267;51.984;20.956;2023-07-22T14:18:33;4.80;;;2.40;;
65597;SDS011;52267;51.984;20.956;2023-07-22T14:21:00;3.70;;;2.00;;
65597;SDS011;52267;51.984;20.956;2023-07-22T14:23:27;3.50;;;2.20;;
65597;SDS011;52267;51.984;20.956;2023-07-22T14:25:54;4.30;;;2.80;;
65597;SDS011;52267;51.984;20.956;2023-07-22T14:28:22;3.90;;;2.50;;
65597;SDS011;52267;51.984;20.956;2023-07-22T14:30:50;4.50;;;2.60;;
65597;SDS011;52267;51.984;20.956;2023-07-22T14:33:17;4.50;;;3.10;;
65597;SDS011;52267;51.984;20.956;2023-07-22T14:35:44;4.30;;;3.30;;
65597;SDS011;52267;51.984;20.956;2023-07-22T14:38:11;6.60;;;3.10;;
65597;SDS011;52267;51.984;20.956;2023-07-22T14:40:39;4.90;;;2.70;;
65597;SDS011;52267;51.984;20.956;2023-07-22T14:43:06;5.60;;;2.60;;
65597;SDS011;52267;51.984;20.956;2023-07-22T14:45:33;4.40;;;2.90;;
65597;SDS011;52267;51.984;20.956;2023-07-22T14:48:01;4.40;;;3.00;;
65597;SDS011;52267;51.984;20.956;2023-07-22T14:50:28;4.10;;;2.90;;
65597;SDS011;52267;51.984;20.956;2023-07-22T14:52:55;4.50;;;2.80;;
65597;SDS011;52267;51.984;20.956;2023-07-22T14:55:22;4.80;;;2.40;;
65597;SDS011;52267;51.984;20.956;2023-07-22T14:57:50;5.80;;;2.40;;
65597;SDS011;52267;51.984;20.956;2023-07-22T15:00:17;4.00;;;2.30;;